createdAt,value
2019-05-19T00:00:30.369Z,99.90
2019-05-19T00:02:58.978Z,99.90
2019-05-19T00:05:27.894Z,99.90
2019-05-19T00:09:00.085Z,99.90
2019-05-19T00:11:28.677Z,99.90
2019-05-19T00:13:57.356Z,99.90
2019-05-19T00:16:26.201Z,99.90
2019-05-19T00:18:54.858Z,99.90
2019-05-19T00:21:23.457Z,99.90
2019-05-19T00:23:52.070Z,99.90
2019-05-19T00:26:20.735Z,99.90
2019-05-19T00:28:49.342Z,99.90
2019-05-19T00:31:17.946Z,99.90
2019-05-19T00:33:46.544Z,99.90
2019-05-19T00:36:15.133Z,99.90
2019-05-19T00:38:43.715Z,99.90
2019-05-19T00:41:12.293Z,99.90
2019-05-19T00:43:40.896Z,99.90
2019-05-19T00:46:09.493Z,99.90
2019-05-19T00:48:38.070Z,99.90
2019-05-19T00:51:06.699Z,99.90
2019-05-19T00:53:35.288Z,99.90
2019-05-19T00:56:03.910Z,99.90
2019-05-19T00:58:33.492Z,99.90
2019-05-19T01:01:03.672Z,99.90
2019-05-19T01:03:32.263Z,99.90
2019-05-19T01:06:00.869Z,99.90
2019-05-19T01:08:29.701Z,99.90
2019-05-19T01:10:58.553Z,99.90
2019-05-19T01:13:27.145Z,99.90
2019-05-19T01:15:55.806Z,99.90
2019-05-19T01:18:24.405Z,99.90
2019-05-19T01:20:52.964Z,99.90
2019-05-19T01:23:21.625Z,99.90
2019-05-19T01:25:50.240Z,99.90
2019-05-19T01:28:18.813Z,99.90
2019-05-19T01:30:47.452Z,99.90
2019-05-19T01:33:16.174Z,99.90
2019-05-19T01:35:44.773Z,99.90
2019-05-19T01:38:13.393Z,99.90
2019-05-19T01:40:42.006Z,99.90
2019-05-19T01:43:10.615Z,99.90
2019-05-19T01:45:39.289Z,99.90
2019-05-19T01:48:07.910Z,99.90
2019-05-19T01:50:36.465Z,99.90
2019-05-19T01:53:05.050Z,99.90
2019-05-19T01:55:33.682Z,99.90
2019-05-19T01:58:02.296Z,99.90
2019-05-19T02:00:30.876Z,99.90
2019-05-19T02:02:59.480Z,99.90
2019-05-19T02:05:28.053Z,99.90
2019-05-19T02:08:15.988Z,99.90
2019-05-19T02:10:44.574Z,99.90
2019-05-19T02:13:13.157Z,99.90
2019-05-19T02:15:41.736Z,99.90
2019-05-19T02:18:12.966Z,99.90
2019-05-19T02:20:41.049Z,99.90
2019-05-19T02:23:09.632Z,99.90
2019-05-19T02:25:38.216Z,99.90
2019-05-19T02:28:06.806Z,99.90
2019-05-19T02:30:35.378Z,99.90
2019-05-19T02:33:03.968Z,99.90
2019-05-19T02:35:32.581Z,99.90
2019-05-19T02:38:01.534Z,99.90
2019-05-19T02:40:30.133Z,99.90
2019-05-19T02:42:58.735Z,99.90
2019-05-19T02:45:27.317Z,99.90
2019-05-19T02:47:55.992Z,99.90
2019-05-19T02:50:24.654Z,99.90
2019-05-19T02:52:53.304Z,99.90
2019-05-19T02:55:22.015Z,99.90
2019-05-19T02:57:50.807Z,99.90
2019-05-19T03:00:24.283Z,99.90
2019-05-19T03:02:52.907Z,99.90
2019-05-19T03:05:21.492Z,99.90
2019-05-19T03:07:50.074Z,99.90
2019-05-19T03:10:18.710Z,99.90
2019-05-19T03:12:47.413Z,99.90
2019-05-19T03:15:15.993Z,99.90
2019-05-19T03:17:44.573Z,99.90
2019-05-19T03:20:13.152Z,99.90
2019-05-19T03:22:41.735Z,99.90
2019-05-19T03:25:10.317Z,99.90
2019-05-19T03:27:38.921Z,99.90
2019-05-19T03:30:25.399Z,99.90
2019-05-19T03:32:58.432Z,99.90
2019-05-19T03:35:27.043Z,99.90
2019-05-19T03:37:55.641Z,99.90
2019-05-19T03:40:24.250Z,99.90
2019-05-19T03:42:52.834Z,99.90
2019-05-19T03:45:21.868Z,99.90
2019-05-19T03:47:50.515Z,99.90
2019-05-19T03:50:19.201Z,99.90
2019-05-19T03:52:47.909Z,99.90
2019-05-19T03:55:16.529Z,99.90
2019-05-19T03:57:45.163Z,99.90
2019-05-19T04:00:13.800Z,99.90
2019-05-19T04:02:42.453Z,99.90
2019-05-19T04:05:11.035Z,99.90
2019-05-19T04:07:39.673Z,99.90
2019-05-19T04:10:08.288Z,99.90
2019-05-19T04:12:36.870Z,99.90
2019-05-19T04:15:05.515Z,99.90
2019-05-19T04:17:34.101Z,99.90
2019-05-19T04:20:02.685Z,99.90
2019-05-19T04:22:31.268Z,99.90
2019-05-19T04:24:59.891Z,99.90
2019-05-19T04:27:28.519Z,99.90
2019-05-19T04:29:57.138Z,99.90
2019-05-19T04:32:25.744Z,99.90
2019-05-19T04:34:56.061Z,99.90
2019-05-19T04:37:24.678Z,99.90
2019-05-19T04:39:53.282Z,99.90
2019-05-19T04:42:22.009Z,99.90
2019-05-19T04:44:50.633Z,99.90
2019-05-19T04:47:19.213Z,99.90
2019-05-19T04:49:47.928Z,99.90
2019-05-19T04:52:16.535Z,99.90
2019-05-19T04:54:45.160Z,99.90
2019-05-19T04:57:13.785Z,99.90
2019-05-19T04:59:42.386Z,99.90
2019-05-19T05:02:11.005Z,99.90
2019-05-19T05:04:42.862Z,99.90
2019-05-19T05:07:11.491Z,99.90
2019-05-19T05:09:40.138Z,99.90
2019-05-19T05:12:08.740Z,99.90
2019-05-19T05:14:37.341Z,99.90
2019-05-19T05:17:05.937Z,99.90
2019-05-19T05:19:34.543Z,99.90
2019-05-19T05:22:03.156Z,99.90
2019-05-19T05:24:31.761Z,99.90
2019-05-19T05:27:00.344Z,99.90
2019-05-19T05:29:28.908Z,99.90
2019-05-19T05:31:57.492Z,99.90
2019-05-19T05:34:26.092Z,99.90
2019-05-19T05:36:54.811Z,99.90
2019-05-19T05:39:23.398Z,99.90
2019-05-19T05:41:52.012Z,99.90
2019-05-19T05:44:21.047Z,99.90
2019-05-19T05:46:49.725Z,99.90
2019-05-19T05:49:18.373Z,99.90
2019-05-19T05:51:46.964Z,99.90
2019-05-19T05:54:15.560Z,99.90
2019-05-19T05:56:44.164Z,99.90
2019-05-19T05:59:12.774Z,99.90
2019-05-19T06:01:41.406Z,99.90
2019-05-19T06:04:09.997Z,99.90
2019-05-19T06:06:38.656Z,99.90
2019-05-19T06:09:07.646Z,99.90
2019-05-19T06:11:36.257Z,99.90
2019-05-19T06:14:24.316Z,99.90
2019-05-19T06:16:53.093Z,99.90
2019-05-19T06:19:22.705Z,99.90
2019-05-19T06:21:51.296Z,99.90
2019-05-19T06:24:19.996Z,99.90
2019-05-19T06:26:48.603Z,99.90
2019-05-19T06:29:17.545Z,99.90
2019-05-19T06:31:46.200Z,99.90
2019-05-19T06:34:14.834Z,99.90
2019-05-19T06:36:43.409Z,99.90
2019-05-19T06:39:12.324Z,99.90
2019-05-19T06:41:40.932Z,99.90
2019-05-19T06:44:09.525Z,99.90
2019-05-19T06:46:38.117Z,99.90
2019-05-19T06:49:07.077Z,99.90
2019-05-19T06:51:35.783Z,99.90
2019-05-19T06:54:04.386Z,99.90
2019-05-19T06:56:33.259Z,99.90
2019-05-19T06:59:02.056Z,99.90
2019-05-19T07:01:30.853Z,99.90
2019-05-19T07:03:59.450Z,99.90
2019-05-19T07:06:28.024Z,99.90
2019-05-19T07:08:56.635Z,99.90
2019-05-19T07:11:25.293Z,99.90
2019-05-19T07:13:53.950Z,99.90
2019-05-19T07:16:22.545Z,99.90
2019-05-19T07:18:51.115Z,99.90
2019-05-19T07:21:19.727Z,99.90
2019-05-19T07:23:48.304Z,99.90
2019-05-19T07:26:17.040Z,99.90
2019-05-19T07:28:45.700Z,99.90
2019-05-19T07:31:14.322Z,99.90
2019-05-19T07:33:42.934Z,99.90
2019-05-19T07:36:11.569Z,99.90
2019-05-19T07:38:40.177Z,99.90
2019-05-19T07:41:08.780Z,99.90
2019-05-19T07:43:37.386Z,99.90
2019-05-19T07:46:06.011Z,99.90
2019-05-19T07:48:34.810Z,99.90
2019-05-19T07:51:03.404Z,99.90
2019-05-19T07:53:42.570Z,99.90
2019-05-19T07:56:02.636Z,99.90
2019-05-19T07:58:31.262Z,99.90
2019-05-19T08:00:59.878Z,99.90
2019-05-19T08:03:28.452Z,99.90
2019-05-19T08:05:57.229Z,99.90
2019-05-19T08:08:25.893Z,99.90
2019-05-19T08:10:56.916Z,99.90
2019-05-19T08:13:25.528Z,99.90
2019-05-19T08:15:54.225Z,99.90
2019-05-19T08:18:23.047Z,99.90
2019-05-19T08:20:52.027Z,99.90
2019-05-19T08:23:20.742Z,99.90
2019-05-19T08:25:49.355Z,99.90
2019-05-19T08:28:17.963Z,99.90
2019-05-19T08:30:46.580Z,99.90
2019-05-19T08:33:15.216Z,99.90
2019-05-19T08:35:43.815Z,99.90
2019-05-19T08:38:12.406Z,99.90
2019-05-19T08:40:41.050Z,99.90
2019-05-19T08:43:09.698Z,99.90
2019-05-19T08:45:38.323Z,99.90
2019-05-19T08:48:06.927Z,99.90
2019-05-19T08:50:35.514Z,99.90
2019-05-19T08:53:04.463Z,99.90
2019-05-19T08:55:33.410Z,99.90
2019-05-19T08:58:02.071Z,99.90
2019-05-19T09:00:34.945Z,99.90
2019-05-19T09:03:01.507Z,99.90
2019-05-19T09:05:31.725Z,99.90
2019-05-19T09:08:00.354Z,99.90
2019-05-19T09:10:48.257Z,99.90
2019-05-19T09:13:17.173Z,99.90
2019-05-19T09:15:45.809Z,99.90
2019-05-19T09:18:14.477Z,99.90
2019-05-19T09:20:43.095Z,99.90
2019-05-19T09:23:31.033Z,99.90
2019-05-19T09:25:59.661Z,99.90
2019-05-19T09:28:28.516Z,99.90
2019-05-19T09:30:57.155Z,99.90
2019-05-19T09:33:25.741Z,99.90
2019-05-19T09:35:54.344Z,99.90
2019-05-19T09:38:22.933Z,99.90
2019-05-19T09:40:51.533Z,99.90
2019-05-19T09:43:20.115Z,99.90
2019-05-19T09:45:49.084Z,99.90
2019-05-19T09:48:17.745Z,99.90
2019-05-19T09:50:46.337Z,99.90
2019-05-19T09:53:15.341Z,99.90
2019-05-19T09:55:44.204Z,99.90
2019-05-19T09:58:15.809Z,99.90
2019-05-19T10:00:43.139Z,99.90
2019-05-19T10:03:11.809Z,99.90
2019-05-19T10:05:40.413Z,99.90
2019-05-19T10:08:09.013Z,99.90
2019-05-19T10:11:30.727Z,99.90
2019-05-19T10:13:59.467Z,99.90
2019-05-19T10:16:28.147Z,99.90
2019-05-19T10:18:56.800Z,99.90
2019-05-19T10:21:25.389Z,99.90
2019-05-19T10:23:54.004Z,99.90
2019-05-19T10:26:22.601Z,99.90
2019-05-19T10:28:51.199Z,99.90
2019-05-19T10:31:19.789Z,99.90
2019-05-19T10:33:48.442Z,99.90
2019-05-19T10:36:17.095Z,99.90
2019-05-19T10:38:45.707Z,99.90
2019-05-19T10:41:14.333Z,99.90
2019-05-19T10:43:42.944Z,99.90
2019-05-19T10:46:11.545Z,99.90
2019-05-19T10:48:40.137Z,99.90
2019-05-19T10:51:08.746Z,99.90
2019-05-19T10:53:37.326Z,99.90
2019-05-19T10:56:05.928Z,99.90
2019-05-19T10:58:34.528Z,99.90
2019-05-19T11:01:03.138Z,99.90
2019-05-19T11:03:31.735Z,99.90
2019-05-19T11:06:00.345Z,99.90
2019-05-19T11:08:28.935Z,99.90
2019-05-19T11:10:57.549Z,99.90
2019-05-19T11:13:26.262Z,99.90
2019-05-19T11:15:55.182Z,99.90
2019-05-19T11:18:23.791Z,99.90
2019-05-19T11:20:52.396Z,99.90
2019-05-19T11:23:21.094Z,99.90
2019-05-19T11:25:51.788Z,99.90
2019-05-19T11:28:20.110Z,99.90
2019-05-19T11:31:08.062Z,99.90
2019-05-19T11:33:36.672Z,99.90
2019-05-19T11:36:05.318Z,99.90
2019-05-19T11:38:33.931Z,99.90
2019-05-19T11:41:02.515Z,99.90
2019-05-19T11:43:31.134Z,99.90
2019-05-19T11:45:59.757Z,99.90
2019-05-19T11:48:28.614Z,99.90
2019-05-19T11:50:57.216Z,99.90
2019-05-19T11:53:25.810Z,99.90
2019-05-19T11:56:05.815Z,99.90
2019-05-19T11:58:25.024Z,99.90
2019-05-19T12:00:53.690Z,99.90
2019-05-19T12:03:22.302Z,99.90
2019-05-19T12:05:50.884Z,99.90
2019-05-19T12:08:19.497Z,99.90
2019-05-19T12:10:48.151Z,99.90
2019-05-19T12:13:16.790Z,99.90
2019-05-19T12:15:45.420Z,99.90
2019-05-19T12:18:14.028Z,99.90
2019-05-19T12:20:42.630Z,99.90
2019-05-19T12:23:11.255Z,99.90
2019-05-19T12:25:39.855Z,99.90
2019-05-19T12:28:08.695Z,99.90
2019-05-19T12:30:37.295Z,99.90
2019-05-19T12:33:05.958Z,99.90
2019-05-19T12:35:34.560Z,99.90
2019-05-19T12:38:03.159Z,99.90
2019-05-19T12:40:31.755Z,99.90
2019-05-19T12:43:00.369Z,99.90
2019-05-19T12:45:29.036Z,99.90
2019-05-19T12:47:57.939Z,99.90
2019-05-19T12:50:26.556Z,99.90
2019-05-19T12:52:55.147Z,99.90
2019-05-19T12:55:23.989Z,99.90
2019-05-19T12:57:52.850Z,99.90
2019-05-19T13:00:21.434Z,99.90
2019-05-19T13:02:50.127Z,99.90
2019-05-19T13:05:18.727Z,99.90
2019-05-19T13:07:47.406Z,99.90
2019-05-19T13:10:16.041Z,99.90
2019-05-19T13:12:44.638Z,99.90
2019-05-19T13:15:15.568Z,99.90
2019-05-19T13:17:43.681Z,99.90
2019-05-19T13:20:12.350Z,99.90
2019-05-19T13:22:40.987Z,99.90
2019-05-19T13:25:09.626Z,99.90
2019-05-19T13:27:38.275Z,99.90
2019-05-19T13:30:06.978Z,99.90
2019-05-19T13:32:35.591Z,99.90
2019-05-19T13:35:04.246Z,99.90
2019-05-19T13:37:32.899Z,99.90
2019-05-19T13:40:01.852Z,99.90
2019-05-19T13:42:30.931Z,99.90
2019-05-19T13:44:59.631Z,99.90
2019-05-19T13:47:28.235Z,99.90
2019-05-19T13:49:56.828Z,99.90
2019-05-19T13:52:25.413Z,99.90
2019-05-19T13:54:54.078Z,99.90
2019-05-19T13:57:22.689Z,99.90
2019-05-19T13:59:51.294Z,99.90
2019-05-19T14:02:19.910Z,99.90
2019-05-19T14:04:48.542Z,99.90
2019-05-19T14:07:17.130Z,99.90
2019-05-19T14:09:45.761Z,99.90
2019-05-19T14:12:14.384Z,99.90
2019-05-19T14:14:42.973Z,99.90
2019-05-19T14:17:11.570Z,99.90
2019-05-19T14:19:40.137Z,99.90
2019-05-19T14:22:08.779Z,99.90
2019-05-19T14:24:37.452Z,99.90
2019-05-19T14:27:06.060Z,99.90
2019-05-19T14:29:40.855Z,99.90
2019-05-19T14:32:11.011Z,99.90
2019-05-19T14:34:39.667Z,99.90
2019-05-19T14:37:08.331Z,99.90
2019-05-19T14:39:37.009Z,99.90
2019-05-19T14:42:09.250Z,99.90
2019-05-19T14:44:37.845Z,99.90
2019-05-19T14:47:06.448Z,99.90
2019-05-19T14:49:35.094Z,99.90
2019-05-19T14:52:03.722Z,99.90
2019-05-19T14:54:32.341Z,99.90
2019-05-19T14:57:01.352Z,99.90
2019-05-19T14:59:49.279Z,99.90
2019-05-19T15:02:19.937Z,99.90
2019-05-19T15:04:48.268Z,99.90
2019-05-19T15:07:16.917Z,99.90
2019-05-19T15:09:45.566Z,99.90
2019-05-19T15:12:14.189Z,99.90
2019-05-19T15:14:43.531Z,99.90
2019-05-19T15:17:12.134Z,99.90
2019-05-19T15:19:40.731Z,99.90
2019-05-19T15:22:09.318Z,99.90
2019-05-19T15:24:38.169Z,99.90
2019-05-19T15:27:06.760Z,99.90
2019-05-19T15:29:35.373Z,99.90
2019-05-19T15:32:04.189Z,99.90
2019-05-19T15:34:33.056Z,99.90
2019-05-19T15:37:01.681Z,99.90
2019-05-19T15:39:30.301Z,99.90
2019-05-19T15:41:58.882Z,99.90
2019-05-19T15:44:27.488Z,99.90
2019-05-19T15:46:56.142Z,99.90
2019-05-19T15:49:24.755Z,99.90
2019-05-19T15:52:02.468Z,99.90
2019-05-19T15:54:23.710Z,99.90
2019-05-19T15:56:52.384Z,99.90
2019-05-19T15:59:21.017Z,99.90
2019-05-19T16:01:49.637Z,99.90
2019-05-19T16:04:18.236Z,99.90
2019-05-19T16:06:46.938Z,99.90
2019-05-19T16:09:15.558Z,99.90
2019-05-19T16:11:44.191Z,99.90
2019-05-19T16:14:12.781Z,99.90
2019-05-19T16:16:41.406Z,99.90
2019-05-19T16:19:10.057Z,99.90
2019-05-19T16:21:38.737Z,99.90
2019-05-19T16:24:07.348Z,99.90
2019-05-19T16:26:35.944Z,99.90
2019-05-19T16:29:04.548Z,99.90
2019-05-19T16:31:33.188Z,99.90
2019-05-19T16:34:02.482Z,99.90
2019-05-19T16:36:31.470Z,99.90
2019-05-19T16:39:00.080Z,99.90
2019-05-19T16:41:28.655Z,99.90
2019-05-19T16:43:57.254Z,99.90
2019-05-19T16:46:25.913Z,99.90
2019-05-19T16:48:54.587Z,99.90
2019-05-19T16:51:23.259Z,99.90
2019-05-19T16:53:54.050Z,99.90
2019-05-19T16:56:22.660Z,99.90
2019-05-19T16:58:51.273Z,99.90
2019-05-19T17:01:20.206Z,99.90
2019-05-19T17:03:49.043Z,99.90
2019-05-19T17:06:17.637Z,99.90
2019-05-19T17:08:46.267Z,99.90
2019-05-19T17:11:18.428Z,99.90
2019-05-19T17:13:45.245Z,99.90
2019-05-19T17:16:33.172Z,99.90
2019-05-19T17:19:01.799Z,99.90
2019-05-19T17:21:30.450Z,99.90
2019-05-19T17:23:59.157Z,99.90
2019-05-19T17:26:28.019Z,99.90
2019-05-19T17:29:00.701Z,99.90
2019-05-19T17:31:26.943Z,99.90
2019-05-19T17:33:55.866Z,99.90
2019-05-19T17:36:27.283Z,99.90
2019-05-19T17:38:54.821Z,99.90
2019-05-19T17:41:23.397Z,99.90
2019-05-19T17:43:51.971Z,99.90
2019-05-19T17:46:20.666Z,99.90
2019-05-19T17:48:49.271Z,99.90
2019-05-19T17:51:17.896Z,99.90
2019-05-19T17:53:46.640Z,99.90
2019-05-19T17:56:15.253Z,99.90
2019-05-19T17:58:43.858Z,99.90
2019-05-19T18:01:12.502Z,99.90
2019-05-19T18:03:41.126Z,99.90
2019-05-19T18:06:10.334Z,99.90
2019-05-19T18:08:38.982Z,99.90
2019-05-19T18:11:07.587Z,99.90
2019-05-19T18:13:36.286Z,99.90
2019-05-19T18:16:04.912Z,99.90
2019-05-19T18:18:33.537Z,99.90
2019-05-19T18:21:02.152Z,99.90
2019-05-19T18:23:30.781Z,99.90
2019-05-19T18:25:59.433Z,99.90
2019-05-19T18:28:28.013Z,99.90
2019-05-19T18:30:56.633Z,99.90
2019-05-19T18:33:25.230Z,99.90
2019-05-19T18:35:53.950Z,99.90
2019-05-19T18:38:22.564Z,99.90
2019-05-19T18:40:51.185Z,99.90
2019-05-19T18:43:19.850Z,99.90
2019-05-19T18:45:48.481Z,99.90
2019-05-19T18:48:17.092Z,99.90
2019-05-19T18:50:45.767Z,99.90
2019-05-19T18:53:14.398Z,99.90
2019-05-19T18:55:42.992Z,99.90
2019-05-19T18:58:11.582Z,99.90
2019-05-19T19:00:40.257Z,99.90
2019-05-19T19:03:08.848Z,99.90
2019-05-19T19:05:37.469Z,99.90
2019-05-19T19:08:06.071Z,99.90
2019-05-19T19:10:34.788Z,99.90
2019-05-19T19:13:03.424Z,99.90
2019-05-19T19:15:32.101Z,99.90
2019-05-19T19:18:00.971Z,99.90
2019-05-19T19:20:29.700Z,99.90
2019-05-19T19:22:58.294Z,99.90
2019-05-19T19:25:26.889Z,99.90
2019-05-19T19:27:55.522Z,99.90
2019-05-19T19:30:26.529Z,99.90
2019-05-19T19:32:54.658Z,99.90
2019-05-19T20:04:30.613Z,99.90
2019-05-19T20:06:59.500Z,99.90
2019-05-19T20:09:28.076Z,99.90
2019-05-19T20:11:56.658Z,99.90
2019-05-19T20:14:25.212Z,99.90
2019-05-19T20:16:53.953Z,99.90
2019-05-19T20:21:51.007Z,23.10
2019-05-19T20:24:19.632Z,21.10
2019-05-19T20:27:50.487Z,41.40
2019-05-19T20:30:33.881Z,51.90
2019-05-19T20:32:49.368Z,60.50
2019-05-19T20:35:17.945Z,60.20
2019-05-19T20:37:46.524Z,63.00
2019-05-19T20:40:15.102Z,65.00
2019-05-19T20:42:44.026Z,66.40
2019-05-19T20:45:12.605Z,68.70
2019-05-19T20:47:41.176Z,67.40
2019-05-19T20:50:09.779Z,68.00
2019-05-19T20:52:38.341Z,68.40
2019-05-19T20:55:06.930Z,68.50
2019-05-19T20:57:35.497Z,69.40
2019-05-19T21:00:04.513Z,68.80
2019-05-19T21:02:33.365Z,70.00
2019-05-19T21:05:01.993Z,69.60
2019-05-19T21:07:30.773Z,69.40
2019-05-19T21:09:59.441Z,70.10
2019-05-19T21:12:28.307Z,69.20
2019-05-19T21:14:56.889Z,69.40
2019-05-19T21:17:25.462Z,69.30
2019-05-19T21:19:54.104Z,69.10
2019-05-19T21:22:22.710Z,69.40
2019-05-19T21:24:51.277Z,69.60
2019-05-19T21:27:20.255Z,69.10
2019-05-19T21:29:48.844Z,69.40
2019-05-19T21:32:17.457Z,69.60
2019-05-19T21:34:46.102Z,69.70
2019-05-19T21:37:14.680Z,69.50
2019-05-19T21:39:43.245Z,69.80
2019-05-19T21:42:11.830Z,69.60
2019-05-19T21:44:40.400Z,69.90
2019-05-19T21:47:08.973Z,70.20
2019-05-19T21:49:37.544Z,70.20
2019-05-19T21:52:06.113Z,69.90
2019-05-19T21:54:34.740Z,69.70
2019-05-19T21:57:03.323Z,70.30
2019-05-19T21:59:32.266Z,70.10
2019-05-19T22:02:01.287Z,70.00
2019-05-19T22:04:29.848Z,67.10
2019-05-19T22:07:27.962Z,69.00
2019-05-19T22:09:56.553Z,66.00
2019-05-19T22:12:25.116Z,65.40
2019-05-19T22:14:53.725Z,65.00
2019-05-19T22:17:22.280Z,65.30
2019-05-19T22:19:51.120Z,69.20
2019-05-19T22:22:19.764Z,65.80
2019-05-19T22:24:48.339Z,66.00
2019-05-19T22:27:16.952Z,66.40
2019-05-19T22:29:45.563Z,67.80
2019-05-19T22:32:33.470Z,67.50
2019-05-19T22:36:20.745Z,68.90
2019-05-19T22:38:49.317Z,67.10
2019-05-19T22:41:17.897Z,66.90
2019-05-19T22:43:46.885Z,67.80
2019-05-19T22:46:15.448Z,68.10
2019-05-19T22:48:44.025Z,69.10
2019-05-19T22:51:12.608Z,68.40
2019-05-19T22:53:41.181Z,68.80
2019-05-19T22:56:09.764Z,68.30
2019-05-19T22:58:41.419Z,70.20
2019-05-19T23:01:08.648Z,68.90
2019-05-19T23:03:37.213Z,68.90
2019-05-19T23:06:05.785Z,68.00
2019-05-19T23:08:34.698Z,68.00
2019-05-19T23:11:03.316Z,68.30
2019-05-19T23:13:31.901Z,68.60
2019-05-19T23:16:00.493Z,68.60
2019-05-19T23:18:29.077Z,68.80
2019-05-19T23:20:57.663Z,69.10
2019-05-19T23:23:26.261Z,69.10
2019-05-19T23:25:56.165Z,69.10
2019-05-19T23:28:24.788Z,69.20
2019-05-19T23:30:53.352Z,69.30
2019-05-19T23:33:22.001Z,69.40
2019-05-19T23:35:50.595Z,69.50
2019-05-19T23:38:19.171Z,69.50
2019-05-19T23:40:47.729Z,69.60
2019-05-19T23:43:16.315Z,69.50
2019-05-19T23:45:44.904Z,69.50
2019-05-19T23:48:13.477Z,69.40
2019-05-19T23:50:42.064Z,69.40
2019-05-19T23:53:10.681Z,69.30
2019-05-19T23:55:39.288Z,69.30
2019-05-19T23:58:07.848Z,69.30
